LFGJ 210400Z AUTO 02010KT CAVOK 01/M01 Q1031

ElémentsDécodage
LFGJ Station météo située sur l'aérodrome de DOLE Tavaux
210400Z émis le 21 du mois à 04h00 UTC
AUTO Bulletin édité par un automate
02010KT vent du 020°, 10 noeuds
CAVOK Ceiling And Visibility OK
- Visibilité de 10 Km ou plus
- Pas de nuage au-dessous de 1500m ou au-dessous de l'altitude minimale du secteur la plus élevée (si>1500m) et absence de CB
- pas de temps présent significatif
01/M01 température 01°C, point de rosée -01°C
 soit une humidité relative de 86%
Q1031 la pression au niveau de la mer (QNH) est de 1031 hPa